Time;durP1;ratioP1;P1;durP2;ratioP2;P2;SDS_P1;SDS_P2;PMS_P1;PMS_P2;Temp;Humidity;BMP_temperature;BMP_pressure;BME280_temperature;BME280_humidity;BME280_pressure;Samples;Min_cycle;Max_cycle;Signal;HPM_P1;HPM_P2
2021/12/18 00:00:22;;;;;;;;;;;;;;;;;;2050441;28;19925;-81
2021/12/18 00:01:23;;;;;;;;;;;;;;;;;;2049662;28;19922;-80
2021/12/18 00:02:26;;;;;;;;;;;;;;;;;;2049845;28;19977;-80
2021/12/18 00:03:26;;;;;;;;;;;;;;;;;;2041948;29;19915;-80
2021/12/18 00:04:27;;;;;;;;;;;;;;;;;;2061966;28;20382;-80
2021/12/18 00:05:27;;;;;;;;;;;;;;;;;;2074344;28;20416;-80
2021/12/18 00:06:35;;;;;;;;;;;;;;;;;;2082606;28;20003;-81
2021/12/18 00:07:35;;;;;;;;;;;;;;;;;;2082758;28;19917;-80
2021/12/18 00:08:43;;;;;;;;;;;;;;;;;;2083091;28;20354;-80
2021/12/18 00:09:48;;;;;;;;;;;;;;;;;;2083074;28;19924;-80
2021/12/18 00:10:48;;;;;;;;;;;;;;;;;;2082381;28;19913;-80
2021/12/18 00:11:48;;;;;;;;;;;;;;;;;;2082705;28;20012;-79
2021/12/18 00:12:49;;;;;;;;;;;;;;;;;;2083054;28;19920;-80
2021/12/18 00:13:52;;;;;;;;;;;;;;;;;;2082962;28;19913;-80
2021/12/18 00:15:10;;;;;;;;;;;;;;;;;;2083033;28;20374;-79
2021/12/18 00:16:17;;;;;;;;;;;;;;;;;;2082981;28;19917;-80
2021/12/18 00:17:20;;;;;;;;;;;;;;;;;;2083351;28;20377;-81
2021/12/18 00:18:20;;;;;;;;;;;;;;;;;;2082520;28;20012;-80
2021/12/18 00:19:26;;;;;;;;;;;;;;;;;;2082558;28;20397;-80
2021/12/18 00:20:30;;;;;;;;;;;;;;;;;;2082529;28;19913;-80
2021/12/18 00:21:31;;;;;;;;;;;;;;;;;;2074631;28;20369;-80
2021/12/18 00:22:31;;;;;;;;;;;;;;;;;;2082627;28;19924;-80
2021/12/18 00:23:31;;;;;;;;;;;;;;;;;;2091163;28;19919;-80
2021/12/18 00:24:32;;;;;;;;;;;;;;;;;;2091212;28;19951;-80
2021/12/18 00:25:32;;;;;;;;;;;;;;;;;;2091060;28;19913;-80
2021/12/18 00:26:33;;;;;;;;;;;;;;;;;;2091217;28;19912;-80
2021/12/18 00:27:33;;;;;;;;;;;;;;;;;;2091221;28;19924;-81
2021/12/18 00:28:34;;;;;;;;;;;;;;;;;;2082448;28;20349;-80
2021/12/18 00:29:34;;;;;;;;;;;;;;;;;;2082420;28;19917;-80
2021/12/18 00:30:35;;;;;;;;;;;;;;;;;;2082368;28;20346;-80
2021/12/18 00:31:35;;;;;;;;;;;;;;;;;;2074187;28;19922;-81
2021/12/18 00:32:36;;;;;;;;;;;;;;;;;;2082529;28;19949;-81
2021/12/18 00:33:36;;;;;;;;;;;;;;;;;;2082225;28;20310;-81
2021/12/18 00:34:39;;;;;;;;;;;;;;;;;;2082480;28;19913;-80
2021/12/18 00:35:39;;;;;;;;;;;;;;;;;;2082255;28;19917;-80
2021/12/18 00:36:39;;;;;;;;;;;;;;;;;;2082299;28;19921;-80
2021/12/18 00:37:40;;;;;;;;;;;;;;;;;;2082880;28;20277;-80
2021/12/18 00:38:41;;;;;;;;;;;;;;;;;;2082873;28;19924;-80
2021/12/18 00:39:52;;;;;;;;;;;;;;;;;;2082870;28;19913;-80
2021/12/18 00:41:11;;;;;;;;;;;;;;;;;;2082832;28;19913;-80
2021/12/18 00:42:35;;;;;;;;;;;;;;;;;;2082756;28;20247;-80
2021/12/18 00:43:40;;;;;;;;;;;;;;;;;;2082850;28;19928;-80
2021/12/18 00:44:40;;;;;;;;;;;;;;;;;;2082802;28;20375;-80
2021/12/18 00:45:40;;;;;;;;;;;;;;;;;;2082793;28;19917;-81
2021/12/18 00:46:43;;;;;;;;;;;;;;;;;;2082722;28;20369;-81
2021/12/18 00:47:44;;;;;;;;;;;;;;;;;;2082381;28;19913;-80
2021/12/18 00:48:44;;;;;;;;;;;;;;;;;;2082205;28;19940;-80
2021/12/18 00:49:45;;;;;;;;;;;;;;;;;;2082242;28;19913;-80
2021/12/18 00:50:45;;;;;;;;;;;;;;;;;;2082303;28;20282;-80
2021/12/18 00:51:46;;;;;;;;;;;;;;;;;;2082851;28;20354;-81
2021/12/18 00:52:47;;;;;;;;;;;;;;;;;;2082632;28;19913;-80
2021/12/18 00:53:47;;;;;;;;;;;;;;;;;;2082752;28;19913;-81
2021/12/18 00:54:48;;;;;;;;;;;;;;;;;;2082576;28;20020;-81
2021/12/18 00:55:50;;;;;;;;;;;;;;;;;;2082715;28;19960;-81
2021/12/18 00:56:51;;;;;;;;;;;;;;;;;;2082161;28;20011;-81
2021/12/18 00:57:53;;;;;;;;;;;;;;;;;;2082163;28;19999;-81
2021/12/18 00:58:54;;;;;;;;;;;;;;;;;;2082634;28;19913;-81
2021/12/18 00:59:59;;;;;;;;;;;;;;;;;;2082688;28;20274;-81
2021/12/18 01:01:00;;;;;;;;;;;;;;;;;;2082668;28;19983;-81
2021/12/18 01:02:01;;;;;;;;;;;;;;;;;;2082237;28;20070;-81
2021/12/18 01:03:02;;;;;;;;;;;;;;;;;;2082240;28;20341;-81
2021/12/18 01:04:02;;;;;;;;;;;;;;;;;;2082766;28;19961;-80
2021/12/18 01:05:04;;;;;;;;;;;;;;;;;;2082234;28;19936;-81
2021/12/18 01:06:04;;;;;;;;;;;;;;;;;;2082074;28;19913;-81
2021/12/18 01:07:04;;;;;;;;;;;;;;;;;;2082621;28;19917;-81
2021/12/18 01:08:05;;;;;;;;;;;;;;;;;;2082859;28;19967;-81
2021/12/18 01:09:05;;;;;;;;;;;;;;;;;;2082426;28;19982;-81
2021/12/18 01:10:33;;;;;;;;;;;;;;;;;;2081845;28;19983;-81
2021/12/18 01:11:46;;;;;;;;;;;;;;;;;;2082098;28;19928;-81
2021/12/18 01:12:49;;;;;;;;;;;;;;;;;;2082198;28;20416;-81
2021/12/18 01:16:19;;;;;;;;;;;;;;;;;;2079565;28;19913;-81
2021/12/18 01:23:26;;;;;;;;;;;;;;;;;;2082587;28;20072;-80
2021/12/18 01:24:26;;;;;;;;;;;;;;;;;;2082540;28;19982;-81
2021/12/18 01:25:27;;;;;;;;;;;;;;;;;;2082526;28;20354;-80
2021/12/18 01:26:27;;;;;;;;;;;;;;;;;;2081937;28;20333;-80
2021/12/18 01:27:27;;;;;;;;;;;;;;;;;;2081933;28;20358;-81
2021/12/18 01:28:27;;;;;;;;;;;;;;;;;;2082052;28;19924;-80
2021/12/18 01:29:28;;;;;;;;;;;;;;;;;;2081999;28;19913;-81
2021/12/18 01:30:28;;;;;;;;;;;;;;;;;;2081889;28;19913;-81
2021/12/18 01:31:28;;;;;;;;;;;;;;;;;;2082064;28;19917;-80
2021/12/18 01:32:29;;;;;;;;;;;;;;;;;;2082479;28;19913;-81
2021/12/18 01:33:30;;;;;;;;;;;;;;;;;;2082485;28;19925;-80
2021/12/18 01:34:30;;;;;;;;;;;;;;;;;;2082352;28;19917;-80
2021/12/18 01:35:30;;;;;;;;;;;;;;;;;;2082450;28;19924;-81
2021/12/18 01:36:33;;;;;;;;;;;;;;;;;;2081733;28;19913;-80
2021/12/18 01:37:34;;;;;;;;;;;;;;;;;;2074077;28;19964;-81
2021/12/18 01:38:34;;;;;;;;;;;;;;;;;;2081942;28;20305;-81
2021/12/18 01:39:34;;;;;;;;;;;;;;;;;;2082424;28;19917;-80
2021/12/18 01:40:35;;;;;;;;;;;;;;;;;;2082334;28;19917;-80
2021/12/18 01:41:53;;;;;;;;;;;;;;;;;;2082463;28;20217;-80
2021/12/18 01:52:32;;;;;;;;;;;;;;;;;;2065308;28;19913;-80
2021/12/18 01:53:32;;;;;;;;;;;;;;;;;;2076228;28;19924;-81
2021/12/18 01:54:32;;;;;;;;;;;;;;;;;;2081762;28;20334;-81
2021/12/18 01:55:34;;;;;;;;;;;;;;;;;;2081735;28;19913;-81
2021/12/18 01:56:34;;;;;;;;;;;;;;;;;;2081779;28;19923;-81
2021/12/18 01:57:35;;;;;;;;;;;;;;;;;;2081771;28;19928;-81
2021/12/18 01:58:35;;;;;;;;;;;;;;;;;;2081722;28;20321;-81
2021/12/18 01:59:37;;;;;;;;;;;;;;;;;;2081687;28;19924;-81
2021/12/18 02:00:40;;;;;;;;;;;;;;;;;;2081821;28;19913;-81
2021/12/18 02:01:41;;;;;;;;;;;;;;;;;;2081789;28;19975;-81
2021/12/18 02:02:41;;;;;;;;;;;;;;;;;;2082323;28;19913;-81
2021/12/18 02:03:42;;;;;;;;;;;;;;;;;;2082154;28;20000;-81
2021/12/18 02:04:42;;;;;;;;;;;;;;;;;;2082215;28;19913;-81
2021/12/18 02:05:43;;;;;;;;;;;;;;;;;;2082100;28;20336;-81
2021/12/18 02:06:43;;;;;;;;;;;;;;;;;;2082119;28;19924;-81
2021/12/18 02:07:43;;;;;;;;;;;;;;;;;;2082207;28;20003;-81
2021/12/18 02:08:44;;;;;;;;;;;;;;;;;;2081598;28;19913;-81
2021/12/18 02:11:09;;;;;;;;;;;;;;;;;;2081736;28;20412;-82
2021/12/18 02:12:09;;;;;;;;;;;;;;;;;;2082165;28;19913;-82
2021/12/18 02:19:35;;;;;;;;;;;;;;;;;;2056803;28;19914;-83
2021/12/18 02:20:11;;;;;;;;;;;;;;;;;;2082228;28;19913;-81
2021/12/18 02:21:16;;;;;;;;;;;;;;;;;;2080842;28;19917;-81
2021/12/18 02:22:17;;;;;;;;;;;;;;;;;;2081656;28;20192;-81
2021/12/18 02:23:20;;;;;;;;;;;;;;;;;;2073429;28;19980;-81
2021/12/18 02:24:24;;;;;;;;;;;;;;;;;;2081587;28;19928;-81
2021/12/18 02:25:25;;;;;;;;;;;;;;;;;;2081981;28;20282;-81
2021/12/18 02:26:26;;;;;;;;;;;;;;;;;;2082041;28;20354;-81
2021/12/18 02:27:26;;;;;;;;;;;;;;;;;;2081955;28;19982;-80
2021/12/18 02:28:27;;;;;;;;;;;;;;;;;;2082012;28;19913;-81
2021/12/18 02:29:31;;;;;;;;;;;;;;;;;;2081980;28;19913;-80
2021/12/18 02:30:32;;;;;;;;;;;;;;;;;;2081999;28;19928;-81
2021/12/18 02:31:32;;;;;;;;;;;;;;;;;;2081403;28;19917;-81
2021/12/18 02:32:32;;;;;;;;;;;;;;;;;;2081433;28;20301;-81
2021/12/18 02:33:33;;;;;;;;;;;;;;;;;;2081293;28;19913;-81
2021/12/18 02:34:36;;;;;;;;;;;;;;;;;;2081416;28;19920;-81
2021/12/18 02:35:42;;;;;;;;;;;;;;;;;;2081421;28;19923;-81
2021/12/18 02:36:47;;;;;;;;;;;;;;;;;;2081509;28;19951;-82
2021/12/18 02:37:47;;;;;;;;;;;;;;;;;;2081912;28;20004;-82
2021/12/18 02:41:22;;;;;;;;;;;;;;;;;;2081946;28;20000;-81
2021/12/18 02:42:22;;;;;;;;;;;;;;;;;;2081435;28;19913;-80
2021/12/18 02:43:24;;;;;;;;;;;;;;;;;;2081324;28;19914;-81
2021/12/18 02:44:24;;;;;;;;;;;;;;;;;;2081371;28;19913;-81
2021/12/18 02:45:24;;;;;;;;;;;;;;;;;;2081853;28;19960;-81
2021/12/18 02:46:24;;;;;;;;;;;;;;;;;;2081855;28;19935;-80
2021/12/18 02:47:25;;;;;;;;;;;;;;;;;;2081933;28;19996;-80
2021/12/18 02:48:29;;;;;;;;;;;;;;;;;;2081340;28;19979;-80
2021/12/18 02:49:29;;;;;;;;;;;;;;;;;;2081417;28;19912;-81
2021/12/18 02:50:29;;;;;;;;;;;;;;;;;;2081839;28;20008;-80
2021/12/18 02:51:30;;;;;;;;;;;;;;;;;;2081848;28;19924;-81
2021/12/18 02:52:30;;;;;;;;;;;;;;;;;;2081355;28;20385;-80
2021/12/18 02:53:31;;;;;;;;;;;;;;;;;;2081360;28;20302;-80
2021/12/18 02:54:31;;;;;;;;;;;;;;;;;;2081368;28;19923;-81
2021/12/18 02:55:32;;;;;;;;;;;;;;;;;;2081777;28;19974;-80
2021/12/18 02:56:32;;;;;;;;;;;;;;;;;;2081794;28;19913;-80
2021/12/18 02:57:33;;;;;;;;;;;;;;;;;;2081706;28;19975;-81
2021/12/18 02:58:37;;;;;;;;;;;;;;;;;;2081229;28;20313;-81
2021/12/18 02:59:41;;;;;;;;;;;;;;;;;;2081382;28;19960;-81
2021/12/18 03:00:41;;;;;;;;;;;;;;;;;;2081286;28;20016;-81
2021/12/18 03:01:41;;;;;;;;;;;;;;;;;;2081508;28;19960;-82
2021/12/18 03:02:44;;;;;;;;;;;;;;;;;;2081184;28;20435;-81
2021/12/18 03:03:48;;;;;;;;;;;;;;;;;;2081375;28;19924;-81
2021/12/18 03:04:54;;;;;;;;;;;;;;;;;;2081692;28;20362;-81
2021/12/18 03:06:05;;;;;;;;;;;;;;;;;;2081711;28;19913;-81
2021/12/18 03:07:08;;;;;;;;;;;;;;;;;;2081846;28;20376;-81
2021/12/18 03:08:15;;;;;;;;;;;;;;;;;;2081311;28;19913;-80
2021/12/18 03:23:11;;;;;;;;;;;;;;;;;;2081641;28;19913;-81
2021/12/18 03:24:30;;;;;;;;;;;;;;;;;;2081171;28;19913;-81
2021/12/18 03:25:33;;;;;;;;;;;;;;;;;;2080992;28;20296;-81
2021/12/18 03:26:33;;;;;;;;;;;;;;;;;;2073279;28;20369;-82
2021/12/18 03:27:33;;;;;;;;;;;;;;;;;;2081088;28;20168;-82
2021/12/18 03:28:34;;;;;;;;;;;;;;;;;;2081618;28;20370;-80
2021/12/18 03:29:34;;;;;;;;;;;;;;;;;;2081058;28;19927;-81
2021/12/18 03:30:35;;;;;;;;;;;;;;;;;;2081182;28;20420;-82
2021/12/18 03:31:36;;;;;;;;;;;;;;;;;;2081473;28;19921;-81
2021/12/18 03:32:36;;;;;;;;;;;;;;;;;;2081667;28;19983;-82
2021/12/18 03:33:37;;;;;;;;;;;;;;;;;;2081450;28;19913;-80
2021/12/18 03:34:38;;;;;;;;;;;;;;;;;;2081145;28;19976;-81
2021/12/18 03:35:38;;;;;;;;;;;;;;;;;;2081041;28;19924;-82
2021/12/18 03:36:38;;;;;;;;;;;;;;;;;;2080881;28;20366;-82
2021/12/18 03:37:39;;;;;;;;;;;;;;;;;;2072879;28;19949;-81
2021/12/18 03:38:39;;;;;;;;;;;;;;;;;;2072901;28;19928;-82
2021/12/18 03:39:40;;;;;;;;;;;;;;;;;;2081116;28;20338;-81
2021/12/18 03:40:40;;;;;;;;;;;;;;;;;;2081032;28;20011;-81
2021/12/18 03:41:40;;;;;;;;;;;;;;;;;;2072923;28;20321;-81
2021/12/18 03:42:41;;;;;;;;;;;;;;;;;;2081075;28;20337;-81
2021/12/18 03:43:41;;;;;;;;;;;;;;;;;;2081489;28;20012;-81
2021/12/18 03:44:42;;;;;;;;;;;;;;;;;;2081495;28;19913;-82
2021/12/18 03:45:42;;;;;;;;;;;;;;;;;;2081368;28;20349;-81
2021/12/18 03:46:42;;;;;;;;;;;;;;;;;;2081389;28;19921;-82
2021/12/18 03:47:43;;;;;;;;;;;;;;;;;;2080932;28;19978;-81
2021/12/18 03:48:43;;;;;;;;;;;;;;;;;;2080873;28;19956;-83
2021/12/18 03:49:44;;;;;;;;;;;;;;;;;;2081091;28;19913;-81
2021/12/18 03:50:46;;;;;;;;;;;;;;;;;;2081354;28;19913;-81
2021/12/18 03:51:47;;;;;;;;;;;;;;;;;;2081479;28;19917;-81
2021/12/18 03:52:49;;;;;;;;;;;;;;;;;;2081409;28;19913;-82
2021/12/18 03:53:50;;;;;;;;;;;;;;;;;;2081574;28;19913;-82
2021/12/18 03:54:50;;;;;;;;;;;;;;;;;;2081366;28;19928;-83
2021/12/18 03:55:50;;;;;;;;;;;;;;;;;;2080843;28;19913;-83
2021/12/18 03:56:51;;;;;;;;;;;;;;;;;;2080926;28;19917;-82
2021/12/18 03:57:51;;;;;;;;;;;;;;;;;;2081484;28;19928;-82
2021/12/18 03:58:54;;;;;;;;;;;;;;;;;;2081383;28;19913;-83
2021/12/18 03:59:55;;;;;;;;;;;;;;;;;;2081479;28;19912;-81
2021/12/18 04:00:55;;;;;;;;;;;;;;;;;;2081405;28;19913;-82
2021/12/18 04:01:55;;;;;;;;;;;;;;;;;;2081460;28;20277;-82
2021/12/18 04:02:56;;;;;;;;;;;;;;;;;;2080837;28;19921;-82
2021/12/18 04:03:56;;;;;;;;;;;;;;;;;;2080926;28;20381;-81
2021/12/18 04:04:57;;;;;;;;;;;;;;;;;;2081418;28;19953;-82
2021/12/18 04:05:57;;;;;;;;;;;;;;;;;;2080678;28;20279;-81
2021/12/18 04:06:58;;;;;;;;;;;;;;;;;;2080840;28;19953;-82
2021/12/18 04:08:08;;;;;;;;;;;;;;;;;;2080782;28;19917;-82
2021/12/18 04:09:11;;;;;;;;;;;;;;;;;;2080748;28;20274;-82
2021/12/18 04:10:12;;;;;;;;;;;;;;;;;;2080976;28;20373;-82
2021/12/18 04:11:13;;;;;;;;;;;;;;;;;;2080631;28;19913;-81
2021/12/18 04:12:13;;;;;;;;;;;;;;;;;;2080872;28;19929;-81
2021/12/18 04:13:13;;;;;;;;;;;;;;;;;;2080985;28;19913;-82
2021/12/18 04:14:17;;;;;;;;;;;;;;;;;;2081411;28;19923;-82
2021/12/18 04:15:17;;;;;;;;;;;;;;;;;;2081375;28;19924;-82
2021/12/18 04:16:18;;;;;;;;;;;;;;;;;;2081173;28;20351;-82
2021/12/18 04:17:18;;;;;;;;;;;;;;;;;;2081307;28;19913;-81
2021/12/18 04:18:18;;;;;;;;;;;;;;;;;;2081389;28;20004;-81
2021/12/18 04:19:19;;;;;;;;;;;;;;;;;;2081237;28;20386;-82
2021/12/18 04:20:19;;;;;;;;;;;;;;;;;;2080859;28;19913;-81
2021/12/18 04:21:20;;;;;;;;;;;;;;;;;;2080888;28;19917;-81
2021/12/18 04:22:20;;;;;;;;;;;;;;;;;;2081396;28;19928;-82
2021/12/18 04:23:20;;;;;;;;;;;;;;;;;;2081210;28;20377;-82
2021/12/18 04:24:21;;;;;;;;;;;;;;;;;;2081283;28;19917;-82
2021/12/18 04:25:21;;;;;;;;;;;;;;;;;;2081466;28;20385;-81
2021/12/18 04:26:22;;;;;;;;;;;;;;;;;;2081231;28;20370;-81
2021/12/18 04:27:22;;;;;;;;;;;;;;;;;;2080790;28;20376;-82
2021/12/18 04:28:23;;;;;;;;;;;;;;;;;;2072548;28;19925;-80
2021/12/18 04:29:23;;;;;;;;;;;;;;;;;;2072796;28;19952;-81
2021/12/18 04:30:23;;;;;;;;;;;;;;;;;;2080860;28;19913;-82
2021/12/18 04:31:24;;;;;;;;;;;;;;;;;;2081248;28;20413;-82
2021/12/18 04:32:24;;;;;;;;;;;;;;;;;;2081277;28;19917;-81
2021/12/18 04:33:26;;;;;;;;;;;;;;;;;;2081349;28;19913;-82
2021/12/18 04:34:26;;;;;;;;;;;;;;;;;;2080738;28;19924;-82
2021/12/18 04:35:30;;;;;;;;;;;;;;;;;;2080766;28;19913;-82
2021/12/18 04:36:30;;;;;;;;;;;;;;;;;;2080787;28;19917;-81
2021/12/18 04:37:30;;;;;;;;;;;;;;;;;;2080617;28;20505;-82
2021/12/18 04:38:31;;;;;;;;;;;;;;;;;;2080740;28;19923;-82
2021/12/18 04:39:32;;;;;;;;;;;;;;;;;;2080759;28;19928;-82
2021/12/18 04:40:32;;;;;;;;;;;;;;;;;;2080816;28;19963;-82
2021/12/18 04:41:47;;;;;;;;;;;;;;;;;;2081360;28;20215;-81
2021/12/18 04:42:47;;;;;;;;;;;;;;;;;;2080713;28;19921;-81
2021/12/18 04:43:48;;;;;;;;;;;;;;;;;;2080869;28;19913;-81
2021/12/18 04:44:48;;;;;;;;;;;;;;;;;;2082067;28;20417;-82
2021/12/18 04:45:49;;;;;;;;;;;;;;;;;;2082246;28;19957;-81
2021/12/18 04:46:49;;;;;;;;;;;;;;;;;;2082334;28;19913;-81
2021/12/18 04:47:49;;;;;;;;;;;;;;;;;;2082666;28;20365;-82
2021/12/18 04:48:50;;;;;;;;;;;;;;;;;;2082734;28;19956;-81
2021/12/18 04:49:50;;;;;;;;;;;;;;;;;;2082739;28;19991;-82
2021/12/18 04:50:50;;;;;;;;;;;;;;;;;;2082881;28;19974;-82
2021/12/18 04:51:53;;;;;;;;;;;;;;;;;;2082724;28;19921;-81
2021/12/18 04:52:53;;;;;;;;;;;;;;;;;;2082701;28;20131;-82
2021/12/18 04:53:54;;;;;;;;;;;;;;;;;;2082146;28;19913;-82
2021/12/18 04:54:54;;;;;;;;;;;;;;;;;;2082283;28;20362;-82
2021/12/18 04:55:54;;;;;;;;;;;;;;;;;;2082096;28;20452;-82
2021/12/18 04:56:54;;;;;;;;;;;;;;;;;;2074098;28;19921;-82
2021/12/18 04:57:55;;;;;;;;;;;;;;;;;;2082119;28;19913;-81
2021/12/18 04:58:55;;;;;;;;;;;;;;;;;;2082073;28;19967;-82
2021/12/18 04:59:56;;;;;;;;;;;;;;;;;;2082229;28;19913;-82
2021/12/18 05:00:56;;;;;;;;;;;;;;;;;;2082042;28;19913;-81
2021/12/18 05:01:57;;;;;;;;;;;;;;;;;;2082205;28;19924;-81
2021/12/18 05:03:01;;;;;;;;;;;;;;;;;;2082138;28;19971;-81
2021/12/18 05:04:04;;;;;;;;;;;;;;;;;;2074430;28;20008;-80
2021/12/18 05:05:04;;;;;;;;;;;;;;;;;;2082214;28;19913;-80
2021/12/18 05:06:04;;;;;;;;;;;;;;;;;;2081943;28;19984;-81
2021/12/18 05:07:05;;;;;;;;;;;;;;;;;;2082252;28;19913;-80
2021/12/18 05:08:05;;;;;;;;;;;;;;;;;;2082506;28;20323;-80
2021/12/18 05:09:05;;;;;;;;;;;;;;;;;;2082676;28;20010;-81
2021/12/18 05:10:07;;;;;;;;;;;;;;;;;;2082454;28;19925;-81
2021/12/18 05:11:07;;;;;;;;;;;;;;;;;;2082679;28;19960;-80
2021/12/18 05:12:08;;;;;;;;;;;;;;;;;;2082579;28;19928;-81
2021/12/18 05:13:08;;;;;;;;;;;;;;;;;;2082162;28;20011;-81
2021/12/18 05:14:09;;;;;;;;;;;;;;;;;;2082016;28;19913;-81
2021/12/18 05:15:09;;;;;;;;;;;;;;;;;;2082240;28;19917;-80
2021/12/18 05:16:10;;;;;;;;;;;;;;;;;;2082420;28;19910;-81
2021/12/18 05:17:10;;;;;;;;;;;;;;;;;;2082135;28;19917;-81
2021/12/18 05:18:10;;;;;;;;;;;;;;;;;;2082188;28;19949;-81
2021/12/18 05:19:11;;;;;;;;;;;;;;;;;;2082554;28;20309;-81
2021/12/18 05:20:11;;;;;;;;;;;;;;;;;;2082455;28;19965;-81
2021/12/18 05:21:11;;;;;;;;;;;;;;;;;;2082460;28;20060;-82
2021/12/18 05:22:11;;;;;;;;;;;;;;;;;;2082424;28;19920;-81
2021/12/18 05:23:14;;;;;;;;;;;;;;;;;;2082491;28;19924;-81
2021/12/18 05:24:15;;;;;;;;;;;;;;;;;;2081989;28;20468;-82
2021/12/18 05:25:15;;;;;;;;;;;;;;;;;;2082117;28;19913;-81
2021/12/18 05:26:15;;;;;;;;;;;;;;;;;;2082105;28;19917;-81
2021/12/18 05:27:16;;;;;;;;;;;;;;;;;;2082054;28;19913;-81
2021/12/18 05:28:16;;;;;;;;;;;;;;;;;;2082430;28;20357;-81
2021/12/18 05:29:16;;;;;;;;;;;;;;;;;;2082581;28;19920;-81
2021/12/18 05:30:16;;;;;;;;;;;;;;;;;;2082366;28;20369;-81
2021/12/18 05:31:17;;;;;;;;;;;;;;;;;;2082428;28;19913;-81
2021/12/18 05:32:17;;;;;;;;;;;;;;;;;;2081967;28;19913;-81
2021/12/18 05:33:17;;;;;;;;;;;;;;;;;;2081989;28;20269;-81
2021/12/18 05:34:23;;;;;;;;;;;;;;;;;;2081802;28;19913;-79
2021/12/18 05:35:23;;;;;;;;;;;;;;;;;;2082066;28;20120;-80
2021/12/18 05:37:53;;;;;;;;;;;;;;;;;;2065211;28;19917;-81
2021/12/18 05:38:53;;;;;;;;;;;;;;;;;;2081082;28;19913;-81
2021/12/18 05:39:53;;;;;;;;;;;;;;;;;;2082461;28;19956;-82
2021/12/18 05:40:54;;;;;;;;;;;;;;;;;;2082584;28;20019;-81
2021/12/18 05:41:54;;;;;;;;;;;;;;;;;;2082443;28;19913;-81
2021/12/18 05:42:54;;;;;;;;;;;;;;;;;;2082402;28;19913;-81
2021/12/18 05:43:55;;;;;;;;;;;;;;;;;;2081869;28;19920;-81
2021/12/18 05:44:55;;;;;;;;;;;;;;;;;;2081783;28;20417;-80
2021/12/18 05:45:55;;;;;;;;;;;;;;;;;;2073577;28;19917;-81
2021/12/18 05:46:56;;;;;;;;;;;;;;;;;;2073688;28;19914;-80
2021/12/18 05:47:56;;;;;;;;;;;;;;;;;;2073557;28;19983;-81
2021/12/18 05:48:56;;;;;;;;;;;;;;;;;;2071013;28;20359;-80
2021/12/18 05:49:56;;;;;;;;;;;;;;;;;;2073594;28;19921;-80
2021/12/18 05:50:57;;;;;;;;;;;;;;;;;;2073576;28;19961;-81
2021/12/18 05:51:57;;;;;;;;;;;;;;;;;;2081672;28;19917;-81
2021/12/18 05:52:59;;;;;;;;;;;;;;;;;;2073677;28;19913;-81
2021/12/18 05:54:00;;;;;;;;;;;;;;;;;;2065615;28;20298;-81
2021/12/18 05:55:00;;;;;;;;;;;;;;;;;;2073644;28;20008;-81
2021/12/18 05:56:00;;;;;;;;;;;;;;;;;;2080860;28;19917;-81
2021/12/18 05:57:04;;;;;;;;;;;;;;;;;;2073443;28;19965;-81
2021/12/18 05:58:05;;;;;;;;;;;;;;;;;;2073852;28;20349;-80
2021/12/18 05:59:05;;;;;;;;;;;;;;;;;;2080335;28;19913;-80
2021/12/18 06:00:06;;;;;;;;;;;;;;;;;;2073441;28;20020;-81
2021/12/18 06:01:07;;;;;;;;;;;;;;;;;;2073707;28;19914;-81
2021/12/18 06:02:07;;;;;;;;;;;;;;;;;;2081068;28;20240;-81
2021/12/18 06:03:07;;;;;;;;;;;;;;;;;;2082136;28;19924;-81
2021/12/18 06:04:08;;;;;;;;;;;;;;;;;;2081450;28;19979;-80
2021/12/18 06:05:08;;;;;;;;;;;;;;;;;;2081789;28;19924;-81
2021/12/18 06:06:08;;;;;;;;;;;;;;;;;;2082113;28;19944;-81
2021/12/18 06:07:16;;;;;;;;;;;;;;;;;;2082110;28;20289;-80
2021/12/18 06:08:16;;;;;;;;;;;;;;;;;;2082171;28;19924;-80
2021/12/18 06:09:17;;;;;;;;;;;;;;;;;;2081712;28;19971;-80
2021/12/18 06:10:18;;;;;;;;;;;;;;;;;;2081722;28;20004;-80
2021/12/18 06:11:20;;;;;;;;;;;;;;;;;;2082050;28;20003;-82
2021/12/18 06:12:21;;;;;;;;;;;;;;;;;;2073484;28;19940;-82
2021/12/18 06:13:21;;;;;;;;;;;;;;;;;;2073464;28;20398;-82
2021/12/18 06:14:21;;;;;;;;;;;;;;;;;;2082119;28;19917;-81
2021/12/18 06:15:22;;;;;;;;;;;;;;;;;;2082140;28;20291;-81
2021/12/18 06:16:22;;;;;;;;;;;;;;;;;;2081479;28;19951;-81
2021/12/18 06:17:22;;;;;;;;;;;;;;;;;;2073050;28;19953;-81
2021/12/18 06:18:22;;;;;;;;;;;;;;;;;;2073438;28;20346;-81
2021/12/18 06:19:23;;;;;;;;;;;;;;;;;;2082028;28;20129;-81
2021/12/18 06:20:24;;;;;;;;;;;;;;;;;;2082101;28;20273;-81
2021/12/18 06:21:24;;;;;;;;;;;;;;;;;;2082003;28;19913;-81
2021/12/18 06:22:24;;;;;;;;;;;;;;;;;;2081943;28;20020;-81
2021/12/18 06:23:24;;;;;;;;;;;;;;;;;;2082053;28;19924;-81
2021/12/18 06:24:26;;;;;;;;;;;;;;;;;;2081594;28;19923;-81
2021/12/18 06:25:26;;;;;;;;;;;;;;;;;;2073221;28;19914;-80
2021/12/18 06:26:27;;;;;;;;;;;;;;;;;;2073468;28;20370;-80
2021/12/18 06:27:27;;;;;;;;;;;;;;;;;;2081462;28;19913;-80
2021/12/18 06:28:27;;;;;;;;;;;;;;;;;;2081602;28;19940;-81
2021/12/18 06:29:33;;;;;;;;;;;;;;;;;;2081918;28;19913;-80
2021/12/18 06:30:33;;;;;;;;;;;;;;;;;;2082089;28;19920;-82
2021/12/18 06:31:36;;;;;;;;;;;;;;;;;;2081990;28;20333;-80
2021/12/18 06:32:37;;;;;;;;;;;;;;;;;;2082005;28;19913;-81
2021/12/18 06:33:37;;;;;;;;;;;;;;;;;;2081868;28;20438;-80
2021/12/18 06:34:38;;;;;;;;;;;;;;;;;;2082058;28;19917;-81
2021/12/18 06:35:38;;;;;;;;;;;;;;;;;;2082053;28;20029;-80
2021/12/18 06:36:38;;;;;;;;;;;;;;;;;;2074113;28;19961;-79
2021/12/18 06:37:39;;;;;;;;;;;;;;;;;;2081541;28;19920;-80
2021/12/18 06:38:39;;;;;;;;;;;;;;;;;;2081621;28;19913;-81
2021/12/18 06:39:39;;;;;;;;;;;;;;;;;;2081989;28;20279;-80
2021/12/18 06:40:42;;;;;;;;;;;;;;;;;;2082044;28;19914;-81
2021/12/18 06:41:42;;;;;;;;;;;;;;;;;;2081926;28;19921;-82
2021/12/18 06:42:43;;;;;;;;;;;;;;;;;;2082001;28;20274;-81
2021/12/18 06:43:43;;;;;;;;;;;;;;;;;;2081943;28;19967;-81
2021/12/18 06:44:44;;;;;;;;;;;;;;;;;;2081872;28;19940;-81
2021/12/18 06:45:44;;;;;;;;;;;;;;;;;;2081741;28;19917;-81
2021/12/18 06:46:44;;;;;;;;;;;;;;;;;;2081945;28;20354;-81
2021/12/18 06:47:45;;;;;;;;;;;;;;;;;;2081373;28;20071;-80
2021/12/18 06:48:47;;;;;;;;;;;;;;;;;;2081466;28;20048;-81
2021/12/18 06:49:48;;;;;;;;;;;;;;;;;;2081869;28;19956;-80
2021/12/18 06:50:50;;;;;;;;;;;;;;;;;;2081388;28;19913;-83
2021/12/18 06:51:50;;;;;;;;;;;;;;;;;;2081284;28;19955;-82
2021/12/18 06:52:51;;;;;;;;;;;;;;;;;;2081587;28;19917;-80
2021/12/18 06:53:51;;;;;;;;;;;;;;;;;;2081881;28;20310;-81
2021/12/18 06:54:51;;;;;;;;;;;;;;;;;;2081747;28;19924;-82
2021/12/18 06:55:52;;;;;;;;;;;;;;;;;;2081618;28;19913;-81
2021/12/18 06:56:52;;;;;;;;;;;;;;;;;;2081850;28;19923;-81
2021/12/18 06:57:52;;;;;;;;;;;;;;;;;;2081675;28;19913;-82
2021/12/18 06:58:53;;;;;;;;;;;;;;;;;;2081716;28;19913;-82
2021/12/18 06:59:53;;;;;;;;;;;;;;;;;;2081931;28;19963;-80
2021/12/18 07:00:53;;;;;;;;;;;;;;;;;;2081216;28;19914;-81
2021/12/18 07:01:53;;;;;;;;;;;;;;;;;;2081297;28;20009;-81
2021/12/18 07:02:54;;;;;;;;;;;;;;;;;;2081321;28;19974;-82
2021/12/18 07:03:54;;;;;;;;;;;;;;;;;;2081910;28;19920;-81
2021/12/18 07:04:54;;;;;;;;;;;;;;;;;;2081247;28;20413;-81
2021/12/18 07:05:55;;;;;;;;;;;;;;;;;;2081304;28;19996;-80
2021/12/18 07:06:55;;;;;;;;;;;;;;;;;;2081173;28;19913;-82
2021/12/18 07:07:56;;;;;;;;;;;;;;;;;;2080914;28;19924;-81
2021/12/18 07:08:56;;;;;;;;;;;;;;;;;;2073102;28;19913;-82
2021/12/18 07:09:56;;;;;;;;;;;;;;;;;;2081344;28;19999;-82
2021/12/18 07:10:57;;;;;;;;;;;;;;;;;;2081712;28;20393;-80
2021/12/18 07:11:57;;;;;;;;;;;;;;;;;;2081637;28;19917;-81
2021/12/18 07:12:58;;;;;;;;;;;;;;;;;;2081247;28;19920;-81
2021/12/18 07:14:00;;;;;;;;;;;;;;;;;;2081276;28;19913;-81
2021/12/18 07:15:01;;;;;;;;;;;;;;;;;;2081695;28;19913;-82
2021/12/18 07:16:02;;;;;;;;;;;;;;;;;;2081636;28;19917;-82
2021/12/18 07:17:03;;;;;;;;;;;;;;;;;;2081158;28;20255;-80
2021/12/18 07:18:03;;;;;;;;;;;;;;;;;;2081243;28;19913;-81
2021/12/18 07:19:03;;;;;;;;;;;;;;;;;;2081675;28;19913;-81
2021/12/18 07:20:04;;;;;;;;;;;;;;;;;;2081139;28;20193;-80
2021/12/18 07:21:05;;;;;;;;;;;;;;;;;;2081212;28;19995;-81
2021/12/18 07:22:05;;;;;;;;;;;;;;;;;;2081632;28;19913;-82
2021/12/18 07:23:05;;;;;;;;;;;;;;;;;;2081667;28;19952;-81
2021/12/18 07:24:06;;;;;;;;;;;;;;;;;;2081629;28;19959;-80
2021/12/18 07:25:06;;;;;;;;;;;;;;;;;;2081647;28;20275;-80
2021/12/18 07:26:07;;;;;;;;;;;;;;;;;;2080924;28;19921;-80
2021/12/18 07:27:07;;;;;;;;;;;;;;;;;;2081163;28;19924;-82
2021/12/18 07:28:07;;;;;;;;;;;;;;;;;;2081169;28;19924;-81
2021/12/18 07:29:08;;;;;;;;;;;;;;;;;;2081331;28;20326;-82
2021/12/18 07:30:09;;;;;;;;;;;;;;;;;;2081062;28;19923;-82
2021/12/18 07:31:09;;;;;;;;;;;;;;;;;;2081123;28;19913;-80
2021/12/18 07:32:10;;;;;;;;;;;;;;;;;;2081743;28;19913;-81
2021/12/18 07:33:11;;;;;;;;;;;;;;;;;;2081176;28;20004;-81
2021/12/18 07:34:11;;;;;;;;;;;;;;;;;;2081106;28;19921;-81
2021/12/18 07:35:12;;;;;;;;;;;;;;;;;;2080980;28;19954;-82
2021/12/18 07:36:14;;;;;;;;;;;;;;;;;;2081062;28;19913;-82
2021/12/18 07:37:14;;;;;;;;;;;;;;;;;;2081379;28;20010;-82
2021/12/18 07:38:15;;;;;;;;;;;;;;;;;;2080895;28;19913;-82
2021/12/18 07:39:15;;;;;;;;;;;;;;;;;;2072927;28;19970;-82
2021/12/18 07:40:16;;;;;;;;;;;;;;;;;;2081080;28;20350;-82
2021/12/18 07:41:16;;;;;;;;;;;;;;;;;;2081063;28;20356;-82
2021/12/18 07:42:17;;;;;;;;;;;;;;;;;;2081075;28;19913;-82